createdAt,value
2022-09-10T00:01:36.932Z,15.70
2022-09-10T00:04:11.303Z,15.70
2022-09-10T00:06:39.854Z,15.70
2022-09-10T00:09:10.138Z,15.60
2022-09-10T00:11:41.137Z,15.70
2022-09-10T00:14:13.517Z,15.60
2022-09-10T00:16:43.217Z,15.60
2022-09-10T00:19:11.436Z,15.60
2022-09-10T00:21:39.944Z,15.60
2022-09-10T00:24:09.044Z,15.60
2022-09-10T00:26:39.622Z,15.60
2022-09-10T00:29:10.149Z,15.60
2022-09-10T00:31:39.020Z,15.60
2022-09-10T00:34:09.264Z,15.60
2022-09-10T00:36:40.784Z,15.60
2022-09-10T00:39:11.202Z,15.60
2022-09-10T00:41:41.080Z,15.60
2022-09-10T00:44:47.901Z,15.60
2022-09-10T00:47:19.317Z,15.60
2022-09-10T00:49:52.304Z,15.60
2022-09-10T00:52:20.717Z,15.60
2022-09-10T00:54:49.472Z,15.60
2022-09-10T00:57:21.880Z,15.50
2022-09-10T00:59:54.190Z,15.50
2022-09-10T01:02:22.764Z,15.50
2022-09-10T01:04:52.831Z,15.50
2022-09-10T01:07:22.938Z,15.50
2022-09-10T01:09:51.333Z,15.50
2022-09-10T01:12:36.863Z,15.50
2022-09-10T01:15:15.678Z,15.50
2022-09-10T01:17:56.077Z,15.40
2022-09-10T01:20:57.294Z,15.40
2022-09-10T01:23:55.419Z,15.40
2022-09-10T01:26:34.387Z,15.40
2022-09-10T01:29:09.891Z,15.40
2022-09-10T01:31:45.454Z,15.40
2022-09-10T01:34:20.063Z,15.40
2022-09-10T01:36:52.561Z,15.40
2022-09-10T01:39:24.713Z,15.40
2022-09-10T01:41:55.020Z,15.40
2022-09-10T01:44:44.340Z,15.30
2022-09-10T01:47:21.809Z,15.40
2022-09-10T01:50:08.811Z,15.30
2022-09-10T01:52:45.863Z,15.30
2022-09-10T01:55:31.049Z,15.30
2022-09-10T01:58:09.213Z,15.30
2022-09-10T02:00:43.116Z,15.30
2022-09-10T02:03:16.173Z,15.30
2022-09-10T02:05:48.679Z,15.30
2022-09-10T02:08:21.321Z,15.30
2022-09-10T02:10:52.892Z,15.30
2022-09-10T02:13:21.460Z,15.30
2022-09-10T02:15:54.740Z,15.30
2022-09-10T02:18:23.773Z,15.30
2022-09-10T02:20:55.774Z,15.30
2022-09-10T02:23:31.302Z,15.30
2022-09-10T02:26:00.160Z,15.30
2022-09-10T02:28:28.920Z,15.30
2022-09-10T02:30:58.681Z,15.30
2022-09-10T02:33:27.121Z,15.30
2022-09-10T02:35:55.545Z,15.30
2022-09-10T02:38:23.681Z,15.30
2022-09-10T02:40:51.813Z,15.30
2022-09-10T02:43:20.152Z,15.30
2022-09-10T02:45:48.402Z,15.30
2022-09-10T02:48:18.272Z,15.30
2022-09-10T02:50:46.801Z,15.30
2022-09-10T02:53:14.888Z,15.30
2022-09-10T02:55:46.135Z,15.20
2022-09-10T02:58:14.487Z,15.20
2022-09-10T03:00:43.124Z,15.20
2022-09-10T03:03:11.231Z,15.20
2022-09-10T03:05:41.670Z,15.20
2022-09-10T03:08:11.249Z,15.20
2022-09-10T03:10:39.465Z,15.30
2022-09-10T03:13:09.811Z,15.30
2022-09-10T03:15:38.224Z,15.30
2022-09-10T03:18:06.838Z,15.40
2022-09-10T03:20:34.960Z,15.30
2022-09-10T03:23:04.871Z,15.40
2022-09-10T03:25:33.021Z,15.40
2022-09-10T03:28:01.579Z,15.40
2022-09-10T03:30:29.872Z,15.30
2022-09-10T03:33:01.174Z,15.30
2022-09-10T03:35:29.525Z,15.40
2022-09-10T03:37:58.001Z,15.40
2022-09-10T03:40:29.620Z,15.40
2022-09-10T03:42:57.661Z,15.40
2022-09-10T03:45:26.274Z,15.40
2022-09-10T03:47:54.363Z,15.40
2022-09-10T03:50:22.433Z,15.40
2022-09-10T03:52:50.480Z,15.40
2022-09-10T03:55:18.982Z,15.40
2022-09-10T03:57:48.489Z,15.40
2022-09-10T04:00:17.727Z,15.40
2022-09-10T04:02:46.548Z,15.40
2022-09-10T04:05:14.913Z,15.40
2022-09-10T04:07:44.109Z,15.40
2022-09-10T04:10:13.253Z,15.40
2022-09-10T04:12:41.617Z,15.50
2022-09-10T04:15:12.601Z,15.40
2022-09-10T04:17:43.792Z,15.40
2022-09-10T04:20:14.781Z,15.50
2022-09-10T04:22:42.807Z,15.40
2022-09-10T04:25:10.827Z,15.50
2022-09-10T04:27:38.877Z,15.40
2022-09-10T04:30:08.289Z,15.40
2022-09-10T04:32:38.020Z,15.50
2022-09-10T04:35:08.138Z,15.50
2022-09-10T04:37:36.470Z,15.50
2022-09-10T04:40:09.382Z,15.40
2022-09-10T04:42:37.509Z,15.50
2022-09-10T04:45:09.676Z,15.50
2022-09-10T04:47:39.209Z,15.50
2022-09-10T04:50:08.536Z,15.50
2022-09-10T04:52:36.795Z,15.50
2022-09-10T04:55:05.673Z,15.50
2022-09-10T04:57:33.746Z,15.50
2022-09-10T05:00:10.738Z,15.50
2022-09-10T05:02:40.136Z,15.50
2022-09-10T05:05:09.183Z,15.50
2022-09-10T05:07:37.205Z,15.50
2022-09-10T05:10:07.085Z,15.50
2022-09-10T05:12:35.235Z,15.50
2022-09-10T05:15:03.721Z,15.50
2022-09-10T05:17:33.324Z,15.50
2022-09-10T05:20:05.439Z,15.60
2022-09-10T05:22:38.421Z,15.50
2022-09-10T05:25:09.769Z,15.60
2022-09-10T05:27:37.820Z,15.60
2022-09-10T05:30:07.183Z,15.60
2022-09-10T05:32:35.315Z,15.60
2022-09-10T05:35:06.463Z,15.60
2022-09-10T05:37:34.476Z,15.60
2022-09-10T05:40:04.322Z,15.60
2022-09-10T05:42:32.851Z,15.70
2022-09-10T05:45:01.355Z,15.70
2022-09-10T05:47:30.027Z,15.70
2022-09-10T05:49:58.129Z,15.70
2022-09-10T05:52:27.608Z,15.70
2022-09-10T05:54:56.535Z,15.70
2022-09-10T05:57:24.669Z,15.70
2022-09-10T05:59:53.096Z,15.70
2022-09-10T06:02:24.175Z,15.80
2022-09-10T06:04:52.554Z,15.70
2022-09-10T06:07:20.744Z,15.80
2022-09-10T06:09:51.669Z,15.80
2022-09-10T06:12:19.801Z,15.80
2022-09-10T06:14:47.938Z,15.80
2022-09-10T06:17:17.749Z,15.80
2022-09-10T06:19:46.270Z,15.80
2022-09-10T06:22:17.352Z,15.80
2022-09-10T06:24:49.094Z,15.80
2022-09-10T06:27:18.729Z,15.80
2022-09-10T06:29:47.288Z,15.80
2022-09-10T06:32:15.525Z,15.80
2022-09-10T06:34:43.624Z,15.90
2022-09-10T06:37:11.898Z,15.80
2022-09-10T06:39:40.084Z,15.90
2022-09-10T06:42:08.602Z,15.90
2022-09-10T06:44:39.373Z,15.90
2022-09-10T06:49:56.397Z,15.90
2022-09-10T06:52:24.634Z,15.90
2022-09-10T06:54:53.098Z,15.90
2022-09-10T06:57:21.209Z,15.90
2022-09-10T06:59:50.654Z,15.90
2022-09-10T07:02:18.817Z,16.00
2022-09-10T07:04:46.854Z,16.00
2022-09-10T07:07:15.053Z,16.00
2022-09-10T07:09:43.207Z,16.00
2022-09-10T07:12:11.254Z,16.00
2022-09-10T07:14:39.477Z,16.00
2022-09-10T07:17:08.911Z,16.00
2022-09-10T07:19:37.706Z,16.00
2022-09-10T07:22:05.948Z,16.00
2022-09-10T07:24:34.152Z,16.00
2022-09-10T07:27:02.208Z,16.00
2022-09-10T07:29:31.224Z,16.00
2022-09-10T07:31:59.431Z,16.00
2022-09-10T07:34:30.155Z,16.10
2022-09-10T07:36:58.172Z,16.10
2022-09-10T07:39:26.934Z,16.10
2022-09-10T07:41:55.077Z,16.20
2022-09-10T07:44:23.146Z,16.20
2022-09-10T07:46:52.915Z,16.20
2022-09-10T07:49:21.194Z,16.20
2022-09-10T07:51:56.482Z,16.20
2022-09-10T07:54:28.546Z,16.20
2022-09-10T07:56:56.860Z,16.20
2022-09-10T07:59:24.974Z,16.20
2022-09-10T08:01:53.112Z,16.30
2022-09-10T08:04:21.404Z,16.30
2022-09-10T08:06:51.465Z,16.30
2022-09-10T08:09:20.443Z,16.30
2022-09-10T08:11:48.611Z,16.30
2022-09-10T08:14:16.701Z,16.40
2022-09-10T08:16:44.796Z,16.40
2022-09-10T08:19:13.847Z,16.40
2022-09-10T08:21:42.153Z,16.50
2022-09-10T08:24:13.351Z,16.50
2022-09-10T08:26:41.425Z,16.50
2022-09-10T08:29:09.733Z,16.50
2022-09-10T08:31:38.291Z,16.50
2022-09-10T08:34:06.400Z,16.50
2022-09-10T08:36:34.451Z,16.50
2022-09-10T08:39:08.253Z,16.50
2022-09-10T08:41:47.976Z,16.60
2022-09-10T08:44:33.087Z,16.60
2022-09-10T08:47:07.669Z,16.60
2022-09-10T08:49:37.699Z,16.60
2022-09-10T08:52:08.212Z,16.60
2022-09-10T08:54:41.730Z,16.60
2022-09-10T08:57:21.566Z,16.70
2022-09-10T08:59:53.507Z,16.70
2022-09-10T09:02:47.964Z,16.80
2022-09-10T09:05:20.143Z,16.80
2022-09-10T09:07:49.434Z,16.80
2022-09-10T09:10:28.449Z,16.80
2022-09-10T09:13:23.988Z,16.90
2022-09-10T09:15:57.788Z,16.90
2022-09-10T09:18:33.838Z,17.00
2022-09-10T09:21:11.649Z,17.00
2022-09-10T09:24:11.699Z,17.10
2022-09-10T09:26:38.982Z,17.10
2022-09-10T09:29:14.601Z,17.10
2022-09-10T09:31:47.030Z,17.20
2022-09-10T09:34:20.207Z,17.20
2022-09-10T09:36:53.081Z,17.30
2022-09-10T09:39:25.759Z,17.40
2022-09-10T09:42:04.911Z,17.40
2022-09-10T09:44:40.473Z,17.40
2022-09-10T09:47:09.720Z,17.50
2022-09-10T09:49:37.796Z,17.50
2022-09-10T09:52:18.465Z,17.60
2022-09-10T09:57:42.861Z,17.70
2022-09-10T10:00:37.174Z,17.70
2022-09-10T10:03:15.351Z,17.70
2022-09-10T10:05:43.958Z,17.70
2022-09-10T10:08:31.458Z,17.80
2022-09-10T10:11:00.071Z,17.90
2022-09-10T10:13:37.574Z,17.90
2022-09-10T10:16:18.124Z,18.00
2022-09-10T10:18:46.940Z,18.10
2022-09-10T10:21:18.145Z,18.20
2022-09-10T10:23:46.982Z,18.20
2022-09-10T10:26:30.586Z,18.20
2022-09-10T10:29:03.764Z,18.30
2022-09-10T10:31:42.917Z,18.30
2022-09-10T10:34:45.236Z,18.40
2022-09-10T10:37:20.921Z,18.40
2022-09-10T10:40:04.443Z,18.50
2022-09-10T10:42:39.897Z,18.50
2022-09-10T10:45:24.265Z,18.50
2022-09-10T10:48:01.974Z,18.60
2022-09-10T10:50:37.964Z,18.60
2022-09-10T10:53:36.085Z,18.60
2022-09-10T10:56:09.783Z,18.60
2022-09-10T10:58:54.498Z,18.70
2022-09-10T11:01:25.496Z,18.70
2022-09-10T11:04:01.520Z,18.70
2022-09-10T11:06:38.360Z,18.70
2022-09-10T11:09:09.090Z,18.80
2022-09-10T11:11:45.208Z,18.80
2022-09-10T11:14:21.170Z,18.90
2022-09-10T11:16:57.995Z,18.90
2022-09-10T11:19:35.773Z,18.90
2022-09-10T11:22:11.209Z,19.00
2022-09-10T11:24:46.528Z,19.00
2022-09-10T11:27:17.566Z,19.10
2022-09-10T11:29:50.181Z,19.20
2022-09-10T11:32:28.422Z,19.20
2022-09-10T11:35:04.945Z,19.30
2022-09-10T11:37:51.042Z,19.30
2022-09-10T11:40:24.941Z,19.30
2022-09-10T11:42:56.512Z,19.40
2022-09-10T11:45:33.286Z,19.40
2022-09-10T11:48:09.581Z,19.40
2022-09-10T11:50:45.515Z,19.50
2022-09-10T11:53:16.547Z,19.50
2022-09-10T11:56:09.837Z,19.50
2022-09-10T11:58:50.361Z,19.60
2022-09-10T12:01:28.784Z,19.50
2022-09-10T12:04:39.248Z,19.60
2022-09-10T12:07:24.049Z,19.60
2022-09-10T12:10:05.376Z,19.70
2022-09-10T12:12:41.663Z,19.70
2022-09-10T12:15:16.663Z,19.70
2022-09-10T12:17:48.943Z,19.60
2022-09-10T12:20:20.592Z,19.60
2022-09-10T12:22:53.831Z,19.60
2022-09-10T12:25:34.240Z,19.70
2022-09-10T12:28:05.513Z,19.70
2022-09-10T12:31:04.345Z,19.70
2022-09-10T12:33:37.768Z,19.80
2022-09-10T12:36:05.923Z,19.60
2022-09-10T12:39:23.817Z,19.60
2022-09-10T12:42:00.993Z,19.70
2022-09-10T12:44:47.603Z,19.70
2022-09-10T12:47:39.985Z,19.70
2022-09-10T12:50:31.580Z,19.70
2022-09-10T12:53:37.405Z,19.80
2022-09-10T12:56:34.894Z,20.00
2022-09-10T12:59:23.799Z,20.10
2022-09-10T13:01:52.999Z,20.10
2022-09-10T13:04:28.451Z,20.00
2022-09-10T13:06:59.159Z,20.10
2022-09-10T13:09:31.621Z,20.10
2022-09-10T13:12:08.220Z,20.20
2022-09-10T13:14:39.728Z,20.20
2022-09-10T13:17:29.208Z,20.30
2022-09-10T13:20:14.977Z,20.20
2022-09-10T13:23:04.087Z,20.20
2022-09-10T13:25:41.551Z,20.20
2022-09-10T13:28:47.186Z,20.30
2022-09-10T13:31:22.365Z,20.30
2022-09-10T13:34:23.779Z,20.30
2022-09-10T13:37:09.771Z,20.40
2022-09-10T13:40:03.755Z,20.40
2022-09-10T13:42:59.407Z,20.40
2022-09-10T13:45:32.582Z,20.40
2022-09-10T13:48:04.164Z,20.40
2022-09-10T13:50:39.069Z,20.30
2022-09-10T13:53:10.810Z,20.30
2022-09-10T13:55:39.724Z,20.30
2022-09-10T13:58:15.149Z,20.30
2022-09-10T14:00:53.287Z,20.30
2022-09-10T14:03:25.621Z,20.30
2022-09-10T14:05:57.842Z,20.30
2022-09-10T14:08:29.365Z,20.30
2022-09-10T14:11:02.012Z,20.30
2022-09-10T14:13:36.989Z,20.30
2022-09-10T14:16:09.762Z,20.30
2022-09-10T14:18:44.149Z,20.30
2022-09-10T14:21:14.972Z,20.30
2022-09-10T14:23:47.445Z,20.20
2022-09-10T14:26:23.416Z,20.30
2022-09-10T14:28:57.627Z,20.20
2022-09-10T14:31:32.239Z,20.20
2022-09-10T14:34:25.849Z,20.30
2022-09-10T14:36:54.336Z,20.30
2022-09-10T14:39:23.689Z,20.30
2022-09-10T14:42:10.345Z,20.20
2022-09-10T14:44:50.444Z,20.10
2022-09-10T14:47:29.070Z,20.20
2022-09-10T14:50:27.474Z,20.20
2022-09-10T14:52:56.479Z,20.20
2022-09-10T14:55:26.340Z,20.20
2022-09-10T14:57:55.635Z,20.30
2022-09-10T15:00:25.976Z,20.30
2022-09-10T15:02:57.307Z,20.40
2022-09-10T15:05:27.136Z,20.30
2022-09-10T15:07:55.350Z,20.30
2022-09-10T15:10:23.535Z,20.40
2022-09-10T15:12:54.142Z,20.50
2022-09-10T15:15:22.609Z,20.50
2022-09-10T15:17:51.048Z,20.50
2022-09-10T15:20:19.213Z,20.60
2022-09-10T15:22:48.766Z,20.70
2022-09-10T15:25:29.563Z,20.70
2022-09-10T15:27:57.914Z,20.80
2022-09-10T15:30:26.417Z,20.80
2022-09-10T15:32:54.685Z,20.80
2022-09-10T15:35:23.084Z,20.90
2022-09-10T15:37:52.607Z,20.90
2022-09-10T15:40:20.734Z,20.90
2022-09-10T15:42:49.362Z,20.90
2022-09-10T15:45:17.716Z,20.90
2022-09-10T15:47:45.958Z,20.90
2022-09-10T15:50:15.810Z,20.90
2022-09-10T15:52:44.946Z,20.90
2022-09-10T15:55:14.587Z,20.90
2022-09-10T15:57:42.699Z,21.00
2022-09-10T16:00:13.912Z,21.00
2022-09-10T16:02:42.190Z,21.10
2022-09-10T16:05:10.840Z,21.10
2022-09-10T16:07:38.990Z,21.40
2022-09-10T16:10:08.096Z,21.60
2022-09-10T16:12:37.791Z,21.60
2022-09-10T16:15:07.460Z,21.80
2022-09-10T16:17:35.626Z,22.00
2022-09-10T16:20:04.516Z,22.20
2022-09-10T16:22:32.835Z,22.30
2022-09-10T16:25:00.918Z,22.40
2022-09-10T16:27:29.516Z,22.60
2022-09-10T16:29:58.978Z,22.70
2022-09-10T16:32:27.042Z,22.80
2022-09-10T16:34:55.545Z,22.80
2022-09-10T16:37:26.079Z,22.70
2022-09-10T16:39:54.791Z,22.60
2022-09-10T16:42:22.992Z,22.50
2022-09-10T16:44:51.062Z,22.40
2022-09-10T16:47:20.483Z,22.10
2022-09-10T16:49:48.545Z,22.00
2022-09-10T16:52:16.732Z,22.00
2022-09-10T16:54:46.036Z,21.90
2022-09-10T16:57:14.205Z,21.70
2022-09-10T16:59:42.312Z,21.60
2022-09-10T17:02:11.948Z,21.50
2022-09-10T17:04:41.420Z,21.40
2022-09-10T17:07:09.578Z,21.30
2022-09-10T17:09:37.726Z,21.20
2022-09-10T17:12:08.399Z,21.10
2022-09-10T17:14:36.476Z,21.00
2022-09-10T17:17:04.624Z,21.00
2022-09-10T17:19:32.681Z,20.90
2022-09-10T17:22:02.216Z,20.80
2022-09-10T17:24:30.345Z,20.70
2022-09-10T17:26:58.455Z,20.60
2022-09-10T17:29:27.448Z,20.50
2022-09-10T17:31:57.387Z,20.50
2022-09-10T17:34:26.563Z,20.40
2022-09-10T17:36:54.907Z,20.30
2022-09-10T17:39:28.174Z,20.30
2022-09-10T17:41:56.422Z,20.20
2022-09-10T17:44:25.705Z,20.10
2022-09-10T17:46:55.120Z,20.00
2022-09-10T17:49:23.560Z,20.00
2022-09-10T17:51:51.669Z,19.90
2022-09-10T17:54:20.109Z,19.90
2022-09-10T17:56:49.674Z,19.80
2022-09-10T17:59:17.768Z,19.80
2022-09-10T18:01:45.891Z,19.70
2022-09-10T18:04:14.359Z,19.70
2022-09-10T18:06:50.210Z,19.60
2022-09-10T18:09:20.229Z,19.60
2022-09-10T18:11:49.755Z,19.40
2022-09-10T18:14:19.452Z,19.30
2022-09-10T18:16:47.644Z,19.30
2022-09-10T18:19:17.892Z,19.30
2022-09-10T18:21:48.119Z,19.10
2022-09-10T18:24:18.075Z,19.10
2022-09-10T18:26:48.026Z,19.10
2022-09-10T18:29:19.426Z,19.00
2022-09-10T18:31:49.987Z,18.90
2022-09-10T18:34:23.286Z,18.90
2022-09-10T18:36:54.717Z,18.80
2022-09-10T18:39:24.317Z,18.80
2022-09-10T18:41:53.224Z,18.70
2022-09-10T18:44:24.649Z,18.60
2022-09-10T18:46:53.778Z,18.60
2022-09-10T18:49:25.136Z,18.50
2022-09-10T18:51:54.683Z,18.50
2022-09-10T18:54:24.246Z,18.50
2022-09-10T18:56:53.973Z,18.40
2022-09-10T18:59:25.185Z,18.30
2022-09-10T19:01:55.790Z,18.30
2022-09-10T19:04:26.020Z,18.30
2022-09-10T19:06:54.928Z,18.20
2022-09-10T19:09:24.869Z,18.20
2022-09-10T19:11:54.801Z,18.20
2022-09-10T19:14:26.839Z,18.10
2022-09-10T19:16:56.408Z,18.10
2022-09-10T19:19:26.260Z,18.10
2022-09-10T19:21:55.847Z,18.10
2022-09-10T19:24:37.838Z,18.10
2022-09-10T19:27:13.356Z,18.10
2022-09-10T19:29:43.036Z,18.00
2022-09-10T19:32:11.541Z,18.00
2022-09-10T19:34:39.985Z,18.00
2022-09-10T19:37:08.138Z,18.00
2022-09-10T19:39:36.255Z,18.00
2022-09-10T19:42:05.723Z,18.00
2022-09-10T19:44:34.524Z,17.90
2022-09-10T19:47:04.414Z,17.90
2022-09-10T19:49:34.099Z,17.90
2022-09-10T19:52:04.278Z,17.80
2022-09-10T19:54:32.523Z,17.80
2022-09-10T19:57:00.700Z,17.80
2022-09-10T19:59:28.869Z,17.70
2022-09-10T20:01:57.166Z,17.70
2022-09-10T20:04:27.765Z,17.60
2022-09-10T20:06:55.915Z,17.60
2022-09-10T20:09:24.175Z,17.50
2022-09-10T20:11:52.312Z,17.60
2022-09-10T20:14:21.005Z,17.50
2022-09-10T20:16:49.257Z,17.50
2022-09-10T20:19:18.798Z,17.40
2022-09-10T20:21:48.691Z,17.50
2022-09-10T20:24:17.591Z,17.30
2022-09-10T20:26:46.601Z,17.30
2022-09-10T20:29:16.563Z,17.30
2022-09-10T20:31:46.233Z,17.30
2022-09-10T20:34:16.004Z,17.30
2022-09-10T20:36:45.121Z,17.20
2022-09-10T20:39:16.971Z,17.20
2022-09-10T20:41:45.951Z,17.10
2022-09-10T20:44:15.978Z,17.10
2022-09-10T20:46:44.580Z,17.10
2022-09-10T20:49:15.908Z,17.10
2022-09-10T20:51:44.832Z,17.00
2022-09-10T20:54:16.863Z,17.00
2022-09-10T20:56:45.532Z,17.00
2022-09-10T20:59:15.614Z,17.00
2022-09-10T21:01:46.157Z,16.90
2022-09-10T21:04:14.978Z,16.90
2022-09-10T21:06:43.248Z,16.90
2022-09-10T21:09:12.094Z,16.80
2022-09-10T21:11:41.550Z,16.90
2022-09-10T21:14:11.083Z,16.80
2022-09-10T21:16:41.271Z,16.80
2022-09-10T21:19:12.540Z,16.70
2022-09-10T21:21:41.679Z,16.70
2022-09-10T21:24:12.666Z,16.60
2022-09-10T21:26:43.284Z,16.60
2022-09-10T21:29:13.916Z,16.60
2022-09-10T21:31:42.842Z,16.60
2022-09-10T21:34:11.149Z,16.50
2022-09-10T21:36:41.019Z,16.50
2022-09-10T21:39:12.860Z,16.40
2022-09-10T21:41:43.999Z,16.40
2022-09-10T21:44:14.583Z,16.40
2022-09-10T21:46:43.207Z,16.40
2022-09-10T21:49:11.322Z,16.40
2022-09-10T21:51:39.661Z,16.40
2022-09-10T21:54:08.065Z,16.30
2022-09-10T21:56:36.116Z,16.30
2022-09-10T21:59:05.631Z,16.20
2022-09-10T22:01:33.830Z,16.20
2022-09-10T22:04:02.584Z,16.20
2022-09-10T22:06:32.612Z,16.10
2022-09-10T22:09:02.942Z,16.20
2022-09-10T22:11:34.206Z,16.10
2022-09-10T22:14:04.046Z,16.10
2022-09-10T22:16:35.224Z,16.10
2022-09-10T22:19:06.288Z,16.00
2022-09-10T22:21:38.273Z,16.10
2022-09-10T22:24:06.922Z,16.10
2022-09-10T22:26:35.011Z,16.00
2022-09-10T22:29:03.577Z,16.10
2022-09-10T22:31:35.672Z,16.00
2022-09-10T22:34:05.965Z,16.00
2022-09-10T22:36:35.603Z,16.00
2022-09-10T22:39:06.525Z,15.90
2022-09-10T22:41:36.451Z,15.90
2022-09-10T22:44:05.827Z,15.90
2022-09-10T22:46:36.326Z,15.80
2022-09-10T22:49:05.258Z,15.80
2022-09-10T22:51:35.358Z,15.80
2022-09-10T22:54:05.145Z,15.70
2022-09-10T22:56:33.571Z,15.60
2022-09-10T22:59:01.840Z,15.50
2022-09-10T23:01:32.235Z,15.50
2022-09-10T23:04:03.247Z,15.50
2022-09-10T23:06:34.050Z,15.50
2022-09-10T23:09:05.414Z,15.50
2022-09-10T23:11:34.998Z,15.40
2022-09-10T23:14:05.370Z,15.40
2022-09-10T23:16:34.948Z,15.40
2022-09-10T23:19:07.212Z,15.40
2022-09-10T23:21:37.032Z,15.50
2022-09-10T23:24:07.369Z,15.50
2022-09-10T23:26:35.410Z,15.40
2022-09-10T23:29:05.625Z,15.40
2022-09-10T23:31:36.630Z,15.50
2022-09-10T23:34:07.809Z,15.40
2022-09-10T23:36:38.466Z,15.50
2022-09-10T23:39:08.600Z,15.40
2022-09-10T23:41:36.936Z,15.40
2022-09-10T23:44:05.104Z,15.40
2022-09-10T23:46:34.390Z,15.40
2022-09-10T23:49:02.939Z,15.30
2022-09-10T23:51:33.316Z,15.30
2022-09-10T23:54:01.635Z,15.30
2022-09-10T23:56:29.906Z,15.30
2022-09-10T23:58:59.447Z,15.30
